Terminal Aerodrome Forecast
Issued by NWS

Home | Current Version | Previous Version | Text Only | Print | Product List | Glossary On
Versions: 1 2 3 4 5 6 7 8 9 10 11 12 13 14 15 16 17 18 19 20
000
FTUS44 KTSA 010428 AAA
TAFBVO
TAF AMD
KBVO 010428Z 0104/0124 00000KT P6SM VCSH SCT019 BKN026
      TEMPO 0106/0109 BKN015
     FM010900 02002KT P6SM VCSH OVC015
     FM011500 03005KT P6SM OVC025
     FM011800 04009KT P6SM OVC050
     FM012100 04009KT P6SM BKN250=

USA.gov is the U.S. government's official web portal to all federal, state and local government web resources and services.